Time;durP1;ratioP1;P1;durP2;ratioP2;P2;SDS_P1;SDS_P2;PMS_P1;PMS_P2;Temp;Humidity;BMP_temperature;BMP_pressure;BME280_temperature;BME280_humidity;BME280_pressure;Samples;Min_cycle;Max_cycle;Signal;HPM_P1;HPM_P2
2023/09/05 00:00:10;;;;;;;;;;;;;;;18.42;55.76;98730.94;5040180;28;20382;-64
2023/09/05 00:02:38;;;;;;;;;;;;;;;18.42;55.27;98734.50;5041921;28;19964;-63
2023/09/05 00:05:07;;;;;;;;;;;;;;;18.33;55.03;98729.13;5039263;28;19929;-63
2023/09/05 00:07:36;;;;;;;;;;;;;;;18.24;55.54;98720.16;5042466;28;19993;-63
2023/09/05 00:10:04;;;;;;;;;;;;;;;18.28;55.50;98721.09;5042116;28;20440;-63
2023/09/05 00:12:32;;;;;;;;;;;;;;;18.36;55.43;98727.63;5037210;28;19987;-65
2023/09/05 00:15:01;;;;;;;;;;;;;;;18.28;55.56;98725.81;5037736;28;19925;-64
2023/09/05 00:17:30;;;;;;;;;;;;;;;18.32;55.59;98724.78;5035612;28;19971;-64
2023/09/05 00:19:58;;;;;;;;;;;;;;;18.22;55.69;98732.69;5046786;28;19932;-64
2023/09/05 00:22:26;;;;;;;;;;;;;;;18.28;55.45;98731.31;5035765;28;20618;-64
2023/09/05 00:24:54;;;;;;;;;;;;;;;18.25;55.63;98731.97;5040556;28;20340;-64
2023/09/05 00:27:22;;;;;;;;;;;;;;;18.28;55.59;98725.81;5039130;28;19979;-64
2023/09/05 00:29:50;;;;;;;;;;;;;;;18.31;55.45;98728.66;5029831;28;19939;-65
2023/09/05 00:32:19;;;;;;;;;;;;;;;18.32;55.41;98726.69;5050210;28;20332;-64
2023/09/05 00:34:47;;;;;;;;;;;;;;;18.32;55.37;98727.53;5055172;28;19960;-66
2023/09/05 00:37:22;;;;;;;;;;;;;;;18.26;55.35;98720.63;5048920;28;19952;-64
2023/09/05 00:39:50;;;;;;;;;;;;;;;18.21;55.51;98725.53;5060798;28;19936;-64
2023/09/05 00:42:18;;;;;;;;;;;;;;;18.21;55.32;98715.34;5044376;28;19929;-64
2023/09/05 00:44:48;;;;;;;;;;;;;;;18.21;55.34;98720.03;5065566;28;19935;-64
2023/09/05 00:47:16;;;;;;;;;;;;;;;18.18;55.83;98716.03;5030375;28;19929;-65
2023/09/05 00:49:47;;;;;;;;;;;;;;;18.16;55.59;98717.50;5041082;28;19943;-64
2023/09/05 00:52:16;;;;;;;;;;;;;;;18.11;55.82;98717.72;5037380;28;19971;-64
2023/09/05 00:54:44;;;;;;;;;;;;;;;18.07;55.99;98714.88;5056261;28;19933;-64
2023/09/05 00:57:14;;;;;;;;;;;;;;;18.00;56.04;98717.38;5046221;28;19993;-64
2023/09/05 00:59:42;;;;;;;;;;;;;;;18.03;55.83;98716.69;5023927;28;19968;-64
2023/09/05 01:02:13;;;;;;;;;;;;;;;18.06;55.85;98711.34;5040982;28;21515;-64
2023/09/05 01:04:41;;;;;;;;;;;;;;;18.00;56.19;98720.13;5038152;28;19926;-64
2023/09/05 01:07:13;;;;;;;;;;;;;;;18.03;56.17;98711.19;5070409;28;19925;-64
2023/09/05 01:09:43;;;;;;;;;;;;;;;18.04;56.12;98721.84;5048145;28;20182;-63
2023/09/05 01:12:11;;;;;;;;;;;;;;;17.99;56.48;98721.28;5033267;28;19970;-64
2023/09/05 01:14:39;;;;;;;;;;;;;;;17.96;56.25;98721.97;5019948;28;19936;-64
2023/09/05 01:17:06;;;;;;;;;;;;;;;17.90;56.40;98712.34;5047367;28;19964;-63
2023/09/05 01:19:35;;;;;;;;;;;;;;;17.92;56.36;98721.84;5034219;28;19925;-65
2023/09/05 01:22:07;;;;;;;;;;;;;;;17.90;56.22;98715.09;5018661;28;19926;-64
2023/09/05 01:24:39;;;;;;;;;;;;;;;17.93;56.08;98715.19;5058035;28;19925;-64
2023/09/05 01:27:07;;;;;;;;;;;;;;;17.80;56.52;98728.09;5034575;28;19929;-63
2023/09/05 01:29:36;;;;;;;;;;;;;;;17.84;56.61;98732.91;5042001;28;19935;-64
2023/09/05 01:32:05;;;;;;;;;;;;;;;17.87;56.48;98732.25;5042439;28;19925;-64
2023/09/05 01:34:33;;;;;;;;;;;;;;;17.74;56.95;98734.97;5045791;28;19925;-64
2023/09/05 01:37:01;;;;;;;;;;;;;;;17.76;56.99;98732.66;5045500;28;19931;-64
2023/09/05 01:39:28;;;;;;;;;;;;;;;17.74;57.06;98732.22;5047621;28;19986;-64
2023/09/05 01:41:58;;;;;;;;;;;;;;;17.79;56.85;98732.00;5043342;28;19925;-64
2023/09/05 01:44:26;;;;;;;;;;;;;;;17.82;56.45;98736.00;5060391;28;19924;-64
2023/09/05 01:46:54;;;;;;;;;;;;;;;17.83;56.66;98736.81;5020739;28;19970;-64
2023/09/05 01:49:21;;;;;;;;;;;;;;;17.72;56.79;98745.47;5048036;28;20260;-64
2023/09/05 01:51:49;;;;;;;;;;;;;;;17.77;56.73;98737.00;5038633;28;19960;-64
2023/09/05 01:54:17;;;;;;;;;;;;;;;17.77;56.59;98745.25;5038791;28;19925;-64
2023/09/05 01:56:46;;;;;;;;;;;;;;;17.76;56.43;98737.38;5056777;28;19932;-65
2023/09/05 01:59:15;;;;;;;;;;;;;;;17.75;56.77;98741.25;5057160;28;19928;-65
2023/09/05 02:01:43;;;;;;;;;;;;;;;17.71;56.62;98735.59;5026017;28;19933;-64
2023/09/05 02:04:11;;;;;;;;;;;;;;;17.71;56.64;98740.28;5048545;28;19977;-64
2023/09/05 02:06:39;;;;;;;;;;;;;;;17.69;56.62;98732.38;5060074;28;19929;-64
2023/09/05 02:09:07;;;;;;;;;;;;;;;17.68;56.81;98736.25;5058874;28;19929;-64
2023/09/05 02:11:35;;;;;;;;;;;;;;;17.60;56.91;98739.91;5054327;28;19929;-66
2023/09/05 02:14:03;;;;;;;;;;;;;;;17.59;57.07;98732.00;5038215;28;20259;-64
2023/09/05 02:16:33;;;;;;;;;;;;;;;17.60;57.00;98734.41;5024764;28;19933;-64
2023/09/05 02:19:02;;;;;;;;;;;;;;;17.62;56.86;98743.09;5028300;28;19948;-64
2023/09/05 02:21:29;;;;;;;;;;;;;;;17.55;57.15;98742.84;5059250;28;19932;-64
2023/09/05 02:23:59;;;;;;;;;;;;;;;17.56;56.82;98738.97;5038974;28;19970;-64
2023/09/05 02:26:26;;;;;;;;;;;;;;;17.49;56.93;98733.22;5047938;28;19931;-64
2023/09/05 02:28:54;;;;;;;;;;;;;;;17.54;57.00;98735.75;5049364;28;19924;-64
2023/09/05 02:31:22;;;;;;;;;;;;;;;17.51;57.14;98736.44;5029740;28;19924;-64
2023/09/05 02:33:51;;;;;;;;;;;;;;;17.49;57.02;98734.03;5029122;28;19931;-64
2023/09/05 02:36:20;;;;;;;;;;;;;;;17.46;56.78;98734.69;5058836;28;20088;-64
2023/09/05 02:38:48;;;;;;;;;;;;;;;17.35;57.39;98738.97;5056235;28;20285;-64
2023/09/05 02:41:16;;;;;;;;;;;;;;;17.35;57.34;98735.44;5048543;28;20352;-64
2023/09/05 02:43:46;;;;;;;;;;;;;;;17.36;57.42;98739.78;5057977;28;19939;-63
2023/09/05 02:46:14;;;;;;;;;;;;;;;17.25;57.64;98734.69;5047910;28;19928;-64
2023/09/05 02:48:42;;;;;;;;;;;;;;;17.29;57.71;98729.34;5032288;28;20011;-64
2023/09/05 02:51:12;;;;;;;;;;;;;;;17.23;57.92;98730.69;5047375;28;20374;-64
2023/09/05 02:53:40;;;;;;;;;;;;;;;17.26;57.63;98728.09;5050725;28;19929;-64
2023/09/05 02:56:08;;;;;;;;;;;;;;;17.18;57.87;98731.69;5023695;28;19929;-65
2023/09/05 02:58:35;;;;;;;;;;;;;;;17.17;58.09;98732.03;5052424;28;19928;-64
2023/09/05 03:01:04;;;;;;;;;;;;;;;17.15;57.96;98729.63;5057724;28;19925;-64
2023/09/05 03:03:32;;;;;;;;;;;;;;;17.17;58.01;98735.56;5046169;28;19933;-65
2023/09/05 03:06:07;;;;;;;;;;;;;;;17.13;58.13;98722.84;5063739;28;19947;-64
2023/09/05 03:08:38;;;;;;;;;;;;;;;17.11;58.06;98725.94;5061843;28;19960;-64
2023/09/05 03:11:07;;;;;;;;;;;;;;;17.19;58.21;98732.50;5030657;28;19925;-63
2023/09/05 03:13:34;;;;;;;;;;;;;;;17.21;57.98;98733.78;5024529;28;19978;-63
2023/09/05 03:16:02;;;;;;;;;;;;;;;17.16;58.11;98730.44;5025911;28;19925;-64
2023/09/05 03:18:30;;;;;;;;;;;;;;;17.22;57.86;98731.84;5043930;28;19924;-64
2023/09/05 03:20:58;;;;;;;;;;;;;;;17.18;57.88;98723.44;5043883;28;19932;-63
2023/09/05 03:23:26;;;;;;;;;;;;;;;17.13;57.75;98717.34;5065024;28;19925;-64
2023/09/05 03:25:56;;;;;;;;;;;;;;;17.07;58.49;98725.00;5064427;28;19932;-65
2023/09/05 03:28:24;;;;;;;;;;;;;;;17.03;58.07;98730.34;5033491;28;19948;-64
2023/09/05 03:30:53;;;;;;;;;;;;;;;16.92;58.93;98731.06;5030716;28;19928;-63
2023/09/05 03:33:20;;;;;;;;;;;;;;;16.98;58.64;98740.72;5060765;28;19925;-64
2023/09/05 03:35:48;;;;;;;;;;;;;;;16.91;58.61;98737.69;5043837;28;19932;-63
2023/09/05 03:38:16;;;;;;;;;;;;;;;16.95;58.80;98727.66;5045213;28;19974;-64
2023/09/05 03:40:51;;;;;;;;;;;;;;;17.01;58.69;98731.81;5038714;28;20034;-65
2023/09/05 03:43:20;;;;;;;;;;;;;;;16.98;58.93;98737.97;5056829;28;19928;-64
2023/09/05 03:45:48;;;;;;;;;;;;;;;16.86;59.12;98732.41;5039336;28;20337;-63
2023/09/05 03:48:16;;;;;;;;;;;;;;;16.82;58.84;98731.44;5039564;28;19925;-64
2023/09/05 03:50:44;;;;;;;;;;;;;;;16.88;58.92;98730.13;5034010;28;19929;-64
2023/09/05 03:53:12;;;;;;;;;;;;;;;16.83;59.39;98730.31;5027507;28;19972;-64
2023/09/05 03:55:39;;;;;;;;;;;;;;;16.77;59.13;98722.25;5028274;28;19925;-64
2023/09/05 03:58:07;;;;;;;;;;;;;;;16.60;59.88;98730.56;5034550;28;19978;-64
2023/09/05 04:00:36;;;;;;;;;;;;;;;16.56;60.00;98728.81;5044648;28;19924;-66
2023/09/05 04:03:04;;;;;;;;;;;;;;;16.61;59.99;98723.94;5051476;28;20262;-64
2023/09/05 04:05:33;;;;;;;;;;;;;;;16.57;60.06;98725.75;5060204;28;20030;-64
2023/09/05 04:08:01;;;;;;;;;;;;;;;16.43;60.45;98725.97;5048875;28;19925;-63
2023/09/05 04:10:29;;;;;;;;;;;;;;;16.53;60.09;98724.81;5050471;28;20389;-64
2023/09/05 04:12:57;;;;;;;;;;;;;;;16.45;60.63;98714.66;5035063;28;20451;-63
2023/09/05 04:15:27;;;;;;;;;;;;;;;16.34;60.85;98727.16;5052339;28;20348;-64
2023/09/05 04:17:56;;;;;;;;;;;;;;;16.20;61.16;98722.69;5052485;28;19936;-63
2023/09/05 04:20:24;;;;;;;;;;;;;;;16.32;61.00;98732.16;5027780;28;20754;-64
2023/09/05 04:22:52;;;;;;;;;;;;;;;16.35;61.04;98721.34;5053306;28;19925;-64
2023/09/05 04:25:19;;;;;;;;;;;;;;;16.33;61.17;98720.06;5055712;28;19925;-64
2023/09/05 04:27:48;;;;;;;;;;;;;;;16.40;61.08;98723.09;5045738;28;19935;-64
2023/09/05 04:30:17;;;;;;;;;;;;;;;16.31;61.14;98723.13;5026057;28;19960;-64
2023/09/05 04:32:45;;;;;;;;;;;;;;;16.20;61.42;98725.44;5056686;28;19985;-64
2023/09/05 04:35:17;;;;;;;;;;;;;;;16.31;61.40;98722.34;5029147;28;19939;-64
2023/09/05 04:37:45;;;;;;;;;;;;;;;16.30;61.52;98727.03;5024653;28;20587;-64
2023/09/05 04:40:13;;;;;;;;;;;;;;;16.30;61.48;98727.03;5051256;28;20455;-65
2023/09/05 04:42:41;;;;;;;;;;;;;;;16.28;61.22;98729.28;5045586;28;19929;-64
2023/09/05 04:45:09;;;;;;;;;;;;;;;16.26;61.46;98730.75;5050273;28;19933;-64
2023/09/05 04:47:38;;;;;;;;;;;;;;;16.27;61.38;98732.34;5047420;28;19986;-64
2023/09/05 04:50:08;;;;;;;;;;;;;;;16.28;61.31;98733.94;5056638;28;19978;-63
2023/09/05 04:52:37;;;;;;;;;;;;;;;16.34;61.13;98725.22;5052032;28;20032;-70
2023/09/05 04:55:05;;;;;;;;;;;;;;;16.24;61.61;98729.16;5054698;28;19925;-70
2023/09/05 04:57:33;;;;;;;;;;;;;;;16.20;61.91;98730.94;5048617;28;20355;-71
2023/09/05 05:00:02;;;;;;;;;;;;;;;16.24;61.55;98729.16;5044826;28;20289;-69
2023/09/05 05:02:31;;;;;;;;;;;;;;;16.16;61.79;98727.22;5051124;28;19955;-69
2023/09/05 05:04:59;;;;;;;;;;;;;;;16.17;61.71;98728.03;5043555;28;20365;-68
2023/09/05 05:07:26;;;;;;;;;;;;;;;15.96;62.44;98728.72;5050383;28;19925;-68
2023/09/05 05:09:56;;;;;;;;;;;;;;;15.94;62.83;98730.19;5048730;28;19932;-68
2023/09/05 05:12:24;;;;;;;;;;;;;;;15.85;63.18;98721.19;5044156;28;19925;-69
2023/09/05 05:14:52;;;;;;;;;;;;;;;15.94;62.75;98721.97;5046976;28;19989;-72
2023/09/05 05:17:20;;;;;;;;;;;;;;;15.96;62.87;98723.25;5047469;28;19929;-70
2023/09/05 05:19:48;;;;;;;;;;;;;;;16.02;62.46;98732.09;5049238;28;19925;-71
2023/09/05 05:22:15;;;;;;;;;;;;;;;16.08;62.32;98729.97;5048490;28;20356;-68
2023/09/05 05:24:43;;;;;;;;;;;;;;;16.11;62.36;98726.59;5051172;28;19936;-70
2023/09/05 05:27:12;;;;;;;;;;;;;;;16.11;62.12;98729.34;5049218;28;19978;-69
2023/09/05 05:29:40;;;;;;;;;;;;;;;16.12;62.59;98728.19;5047751;28;19928;-69
2023/09/05 05:32:08;;;;;;;;;;;;;;;16.13;62.45;98732.53;5042958;28;19929;-69
2023/09/05 05:34:36;;;;;;;;;;;;;;;16.12;62.33;98729.00;5048677;28;20370;-68
2023/09/05 05:37:04;;;;;;;;;;;;;;;16.12;62.19;98726.25;5048555;28;20448;-69
2023/09/05 05:39:31;;;;;;;;;;;;;;;16.17;62.04;98730.75;5046052;28;19929;-68
2023/09/05 05:41:59;;;;;;;;;;;;;;;16.20;61.89;98727.38;5047392;28;19925;-69
2023/09/05 05:44:28;;;;;;;;;;;;;;;16.21;62.41;98734.47;5049027;28;19929;-68
2023/09/05 05:46:57;;;;;;;;;;;;;;;16.29;62.22;98735.56;5046591;28;19951;-68
2023/09/05 05:49:28;;;;;;;;;;;;;;;16.22;62.40;98736.06;5044232;28;19924;-69
2023/09/05 05:51:56;;;;;;;;;;;;;;;16.30;61.92;98731.69;5038994;28;19929;-68
2023/09/05 05:54:24;;;;;;;;;;;;;;;16.36;62.01;98733.13;5047454;28;20340;-68
2023/09/05 05:56:53;;;;;;;;;;;;;;;16.38;61.96;98733.59;5046653;28;19990;-68
2023/09/05 05:59:21;;;;;;;;;;;;;;;16.46;61.67;98735.50;5043266;28;19929;-68
2023/09/05 06:01:52;;;;;;;;;;;;;;;16.53;61.53;98734.97;5041958;28;19978;-68
2023/09/05 06:04:21;;;;;;;;;;;;;;;16.52;61.83;98723.22;5044881;28;20326;-69
2023/09/05 06:06:49;;;;;;;;;;;;;;;16.52;61.53;98730.63;5046816;28;20046;-68
2023/09/05 06:09:18;;;;;;;;;;;;;;;16.58;61.40;98716.41;5049519;28;20311;-69
2023/09/05 06:11:46;;;;;;;;;;;;;;;16.63;61.72;98724.44;5048858;28;19966;-69
2023/09/05 06:14:14;;;;;;;;;;;;;;;16.67;61.20;98719.06;5048453;28;20656;-68
2023/09/05 06:16:42;;;;;;;;;;;;;;;16.64;61.64;98717.00;5024092;28;19925;-69
2023/09/05 06:19:11;;;;;;;;;;;;;;;16.68;61.52;98716.03;5045724;28;19924;-68
2023/09/05 06:21:38;;;;;;;;;;;;;;;16.76;61.33;98711.63;5049542;28;19928;-69
2023/09/05 06:24:06;;;;;;;;;;;;;;;16.85;61.43;98714.34;5049211;28;19931;-69
2023/09/05 06:26:38;;;;;;;;;;;;;;;16.86;61.27;98722.22;5048409;28;19978;-69
2023/09/05 06:29:06;;;;;;;;;;;;;;;16.93;61.39;98724.44;5044933;28;20328;-69
2023/09/05 06:31:33;;;;;;;;;;;;;;;16.97;61.02;98722.63;5038451;28;19932;-69
2023/09/05 06:34:01;;;;;;;;;;;;;;;17.02;61.10;98725.19;5045131;28;19925;-70
2023/09/05 06:36:30;;;;;;;;;;;;;;;17.09;60.86;98719.97;5046442;28;19978;-69
2023/09/05 06:38:58;;;;;;;;;;;;;;;17.18;60.79;98712.47;5049105;28;19966;-69
2023/09/05 06:41:26;;;;;;;;;;;;;;;17.24;60.79;98711.13;5047048;28;20608;-69
2023/09/05 06:43:54;;;;;;;;;;;;;;;17.27;60.80;98713.22;5047512;28;19933;-69
2023/09/05 06:46:22;;;;;;;;;;;;;;;17.33;60.81;98713.00;5030478;28;20428;-69
2023/09/05 06:48:50;;;;;;;;;;;;;;;17.34;60.52;98703.63;5044253;28;19925;-69
2023/09/05 06:51:18;;;;;;;;;;;;;;;17.40;60.96;98714.06;5051729;28;19946;-69
2023/09/05 06:53:50;;;;;;;;;;;;;;;17.45;60.57;98713.84;5030698;28;19951;-69
2023/09/05 06:56:19;;;;;;;;;;;;;;;17.49;60.50;98711.25;5045432;28;20374;-69
2023/09/05 06:58:48;;;;;;;;;;;;;;;17.63;60.04;98716.44;5048994;28;19932;-69
2023/09/05 07:01:15;;;;;;;;;;;;;;;17.64;60.32;98713.38;5039708;28;19933;-70
2023/09/05 07:03:43;;;;;;;;;;;;;;;17.73;60.18;98714.09;5045853;28;20538;-70
2023/09/05 07:06:11;;;;;;;;;;;;;;;17.76;59.83;98705.19;5042548;28;19925;-70
2023/09/05 07:08:38;;;;;;;;;;;;;;;17.71;60.26;98705.38;5044924;28;20051;-69
2023/09/05 07:11:08;;;;;;;;;;;;;;;17.82;60.14;98705.78;5050546;28;19947;-69
2023/09/05 07:13:35;;;;;;;;;;;;;;;17.89;60.32;98710.69;5037468;28;20314;-70
2023/09/05 07:16:03;;;;;;;;;;;;;;;17.88;59.29;98704.41;5040420;28;19970;-70
2023/09/05 07:18:31;;;;;;;;;;;;;;;18.14;59.87;98709.63;5049946;28;19925;-66
2023/09/05 07:20:59;;;;;;;;;;;;;;;18.24;59.11;98711.13;5050321;28;19924;-69
2023/09/05 07:23:26;;;;;;;;;;;;;;;18.36;59.03;98704.81;5047709;28;19925;-69
2023/09/05 07:25:55;;;;;;;;;;;;;;;18.45;58.29;98709.06;5047964;28;19929;-69
2023/09/05 07:28:24;;;;;;;;;;;;;;;18.50;58.17;98710.78;5042189;28;19964;-69
2023/09/05 07:30:52;;;;;;;;;;;;;;;18.64;58.04;98704.94;5039080;28;19925;-69
2023/09/05 07:33:20;;;;;;;;;;;;;;;18.63;58.08;98697.81;5055031;28;19925;-69
2023/09/05 07:35:48;;;;;;;;;;;;;;;18.74;57.70;98705.28;5041528;28;20710;-69
2023/09/05 07:38:17;;;;;;;;;;;;;;;18.77;57.31;98698.31;5044260;28;19928;-69
2023/09/05 07:40:45;;;;;;;;;;;;;;;18.87;57.49;98700.59;5040766;28;19979;-69
2023/09/05 07:43:13;;;;;;;;;;;;;;;19.00;57.02;98707.66;5047336;28;19924;-69
2023/09/05 07:45:42;;;;;;;;;;;;;;;19.01;56.68;98702.94;5044453;28;20329;-69
2023/09/05 07:48:09;;;;;;;;;;;;;;;19.04;56.77;98707.78;5042339;28;19933;-70
2023/09/05 07:50:37;;;;;;;;;;;;;;;19.25;56.34;98708.41;5047064;28;19932;-69
2023/09/05 07:53:05;;;;;;;;;;;;;;;19.28;56.27;98707.72;5049870;28;19980;-70
2023/09/05 07:55:33;;;;;;;;;;;;;;;19.27;56.75;98708.84;5047537;28;19951;-69
2023/09/05 07:58:00;;;;;;;;;;;;;;;19.36;56.05;98704.00;5047846;28;19979;-69
2023/09/05 08:00:28;;;;;;;;;;;;;;;19.47;55.21;98706.25;5042746;28;19929;-69
2023/09/05 08:02:58;;;;;;;;;;;;;;;19.50;55.20;98719.34;5048500;28;19925;-69
2023/09/05 08:05:26;;;;;;;;;;;;;;;19.53;55.74;98713.13;5043858;28;19925;-69
2023/09/05 08:07:54;;;;;;;;;;;;;;;19.59;55.34;98717.25;5067377;28;20389;-69
2023/09/05 08:10:22;;;;;;;;;;;;;;;19.66;55.11;98705.66;5050177;28;19931;-69
2023/09/05 08:12:49;;;;;;;;;;;;;;;19.74;54.84;98705.47;5040302;28;19994;-69
2023/09/05 08:15:17;;;;;;;;;;;;;;;19.84;54.59;98713.25;5055217;28;19929;-70
2023/09/05 08:17:45;;;;;;;;;;;;;;;19.92;54.83;98713.41;5053925;28;20401;-69
2023/09/05 08:20:16;;;;;;;;;;;;;;;19.87;54.09;98717.25;5036969;28;19932;-69
2023/09/05 08:22:46;;;;;;;;;;;;;;;19.89;54.32;98710.22;5040045;28;19983;-69
2023/09/05 08:25:15;;;;;;;;;;;;;;;20.04;53.50;98716.13;5050796;28;19924;-69
2023/09/05 08:27:42;;;;;;;;;;;;;;;20.06;53.62;98713.81;5048623;28;20333;-69
2023/09/05 08:30:11;;;;;;;;;;;;;;;20.06;53.22;98716.56;5041193;28;19936;-69
2023/09/05 08:32:39;;;;;;;;;;;;;;;20.12;53.61;98723.41;5045265;28;20379;-69
2023/09/05 08:35:09;;;;;;;;;;;;;;;20.17;53.64;98720.41;5049858;28;19925;-69
2023/09/05 08:37:38;;;;;;;;;;;;;;;20.22;53.54;98713.81;5047951;28;20042;-69
2023/09/05 08:40:06;;;;;;;;;;;;;;;20.24;53.49;98714.25;5049397;28;19966;-67
2023/09/05 08:42:36;;;;;;;;;;;;;;;20.18;53.15;98710.97;5066485;28;19962;-69
2023/09/05 08:45:05;;;;;;;;;;;;;;;20.19;52.40;98711.75;5063409;28;19924;-69
2023/09/05 08:47:33;;;;;;;;;;;;;;;20.24;53.03;98703.22;5047949;28;19924;-69
2023/09/05 08:50:04;;;;;;;;;;;;;;;20.32;53.00;98705.81;5061051;28;19936;-69
2023/09/05 08:52:32;;;;;;;;;;;;;;;20.33;52.91;98706.59;5047905;28;19932;-69
2023/09/05 08:55:02;;;;;;;;;;;;;;;20.28;52.80;98702.16;5053881;28;19925;-69
2023/09/05 08:57:30;;;;;;;;;;;;;;;20.25;52.91;98705.63;5062475;28;20444;-69
2023/09/05 08:59:58;;;;;;;;;;;;;;;20.30;53.68;98702.63;5051593;28;19925;-69
2023/09/05 09:02:26;;;;;;;;;;;;;;;20.26;52.49;98696.19;5051008;28;19925;-69
2023/09/05 09:04:56;;;;;;;;;;;;;;;20.37;53.35;98696.47;5048842;28;19932;-69
2023/09/05 09:07:27;;;;;;;;;;;;;;;20.46;53.00;98697.13;5059656;28;19929;-69
2023/09/05 09:09:55;;;;;;;;;;;;;;;20.55;52.93;98688.63;5047801;28;19986;-69
2023/09/05 09:12:28;;;;;;;;;;;;;;;20.64;52.54;98695.56;5051815;28;19932;-69
2023/09/05 09:14:56;;;;;;;;;;;;;;;20.72;52.37;98684.69;5048857;28;19925;-69
2023/09/05 09:17:26;;;;;;;;;;;;;;;20.76;52.24;98697.41;5044810;28;19963;-69
2023/09/05 09:19:54;;;;;;;;;;;;;;;20.77;52.46;98685.19;5048598;28;20377;-69
2023/09/05 09:22:23;;;;;;;;;;;;;;;20.83;52.00;98686.53;5047767;28;19971;-68
2023/09/05 09:24:51;;;;;;;;;;;;;;;20.92;52.58;98695.41;5047237;28;19948;-69
2023/09/05 09:27:22;;;;;;;;;;;;;;;20.96;51.76;98700.22;5050358;28;19935;-69
2023/09/05 09:29:55;;;;;;;;;;;;;;;20.95;52.12;98698.63;5041464;28;19926;-68
2023/09/05 09:32:24;;;;;;;;;;;;;;;21.00;51.86;98693.63;5043078;28;20333;-68
2023/09/05 09:34:52;;;;;;;;;;;;;;;20.92;52.18;98697.38;5024439;28;19924;-69
2023/09/05 09:37:24;;;;;;;;;;;;;;;20.97;52.24;98690.78;5049396;28;19928;-69
2023/09/05 09:39:57;;;;;;;;;;;;;;;21.06;51.81;98694.13;5050357;28;19954;-68
2023/09/05 09:42:25;;;;;;;;;;;;;;;21.11;52.36;98691.09;5035016;28;19929;-68
2023/09/05 09:44:54;;;;;;;;;;;;;;;21.14;52.03;98688.38;5063669;28;20373;-68
2023/09/05 09:47:23;;;;;;;;;;;;;;;21.16;51.93;98679.75;5044948;28;20373;-67
2023/09/05 09:49:51;;;;;;;;;;;;;;;21.24;51.41;98678.72;5051018;28;19928;-67
2023/09/05 09:52:20;;;;;;;;;;;;;;;21.23;51.73;98671.59;5049208;28;19986;-67
2023/09/05 09:54:51;;;;;;;;;;;;;;;21.21;51.15;98686.97;5050580;28;19925;-67
2023/09/05 09:57:19;;;;;;;;;;;;;;;21.20;50.93;98677.88;5048302;28;19924;-67
2023/09/05 09:59:59;;;;;;;;;;;;;;;21.27;51.02;98678.00;5048622;28;19967;-67
2023/09/05 10:02:27;;;;;;;;;;;;;;;21.34;50.80;98672.66;5042443;28;19925;-67
2023/09/05 10:04:55;;;;;;;;;;;;;;;21.36;50.44;98663.97;5050732;28;19932;-67
2023/09/05 10:07:22;;;;;;;;;;;;;;;21.47;51.64;98662.25;5050946;28;19928;-67
2023/09/05 10:09:50;;;;;;;;;;;;;;;21.56;52.23;98662.00;5045272;28;19936;-67
2023/09/05 10:12:20;;;;;;;;;;;;;;;21.60;52.18;98649.84;5045776;28;20758;-66
2023/09/05 10:14:49;;;;;;;;;;;;;;;21.63;51.76;98653.88;5045882;28;20438;-67
2023/09/05 10:17:18;;;;;;;;;;;;;;;21.66;51.81;98651.16;5038029;28;19933;-67
2023/09/05 10:19:46;;;;;;;;;;;;;;;21.72;51.34;98651.66;5049615;28;19959;-67
2023/09/05 10:22:16;;;;;;;;;;;;;;;21.76;50.98;98655.28;5040652;28;19925;-67
2023/09/05 10:24:45;;;;;;;;;;;;;;;21.72;49.59;98659.94;5045209;28;20306;-67
2023/09/05 10:27:12;;;;;;;;;;;;;;;21.69;49.32;98660.69;5056465;28;20385;-67
2023/09/05 10:29:41;;;;;;;;;;;;;;;21.67;49.32;98660.25;5028111;28;19925;-67
2023/09/05 10:32:10;;;;;;;;;;;;;;;21.70;49.86;98656.75;5048739;28;19978;-67
2023/09/05 10:34:58;;;;;;;;;;;;;;;21.73;51.41;98649.69;5051196;28;20488;-67
2023/09/05 10:37:41;;;;;;;;;;;;;;;21.80;51.09;98650.63;5047742;28;19928;-67
2023/09/05 10:40:10;;;;;;;;;;;;;;;21.79;50.02;98648.22;5027653;28;19925;-67
2023/09/05 10:42:42;;;;;;;;;;;;;;;21.85;50.80;98642.03;5044221;28;19966;-66
2023/09/05 10:45:17;;;;;;;;;;;;;;;21.93;50.27;98631.88;5044239;28;19925;-67
2023/09/05 10:47:45;;;;;;;;;;;;;;;21.94;50.41;98636.22;5050010;28;19955;-67
2023/09/05 10:50:15;;;;;;;;;;;;;;;22.01;49.95;98635.56;5050793;28;19928;-67
2023/09/05 10:52:47;;;;;;;;;;;;;;;22.03;49.51;98636.00;5026606;28;19929;-67
2023/09/05 10:55:39;;;;;;;;;;;;;;;22.06;49.71;98629.72;5047887;28;19925;-67
2023/09/05 10:58:22;;;;;;;;;;;;;;;22.07;47.72;98628.56;5043456;28;19933;-67
2023/09/05 11:00:53;;;;;;;;;;;;;;;22.09;50.36;98629.78;5039104;28;21310;-67
2023/09/05 11:03:20;;;;;;;;;;;;;;;22.09;49.25;98623.44;5047961;28;19929;-67
2023/09/05 11:05:48;;;;;;;;;;;;;;;22.00;48.69;98620.13;5045849;28;19925;-67
2023/09/05 11:08:21;;;;;;;;;;;;;;;22.08;50.72;98616.31;5048908;28;19928;-67
2023/09/05 11:10:53;;;;;;;;;;;;;;;22.11;48.96;98615.63;5027266;28;19929;-67
2023/09/05 11:13:22;;;;;;;;;;;;;;;22.11;50.00;98610.06;5048135;28;20370;-67
2023/09/05 11:15:55;;;;;;;;;;;;;;;22.12;49.66;98608.91;5038111;28;20035;-67
2023/09/05 11:18:23;;;;;;;;;;;;;;;22.12;49.69;98600.59;5039240;28;19925;-67
2023/09/05 11:20:50;;;;;;;;;;;;;;;22.22;49.44;98598.00;5050280;28;19932;-66
2023/09/05 11:23:20;;;;;;;;;;;;;;;22.27;48.72;98599.66;5049824;28;19929;-67
2023/09/05 11:25:51;;;;;;;;;;;;;;;22.36;48.38;98597.41;5041711;28;19929;-67
2023/09/05 11:28:19;;;;;;;;;;;;;;;22.33;47.40;98589.06;5043340;28;19929;-67
2023/09/05 11:30:47;;;;;;;;;;;;;;;22.32;48.40;98599.34;5032038;28;20355;-67
2023/09/05 11:33:15;;;;;;;;;;;;;;;22.33;48.58;98591.84;5049135;28;19929;-68
2023/09/05 11:35:43;;;;;;;;;;;;;;;22.35;48.42;98593.03;5042037;28;19925;-69
2023/09/05 11:38:11;;;;;;;;;;;;;;;22.39;48.49;98591.13;5050418;28;19974;-69
2023/09/05 11:40:41;;;;;;;;;;;;;;;22.44;48.13;98590.81;5047425;28;19975;-69
2023/09/05 11:43:10;;;;;;;;;;;;;;;22.48;48.37;98591.66;5040850;28;20366;-69
2023/09/05 11:45:39;;;;;;;;;;;;;;;22.51;46.52;98583.78;5033828;28;20198;-69
2023/09/05 11:48:10;;;;;;;;;;;;;;;22.53;46.44;98587.78;5041967;28;19929;-69
2023/09/05 11:50:38;;;;;;;;;;;;;;;22.52;46.26;98585.38;5046622;28;19929;-69
2023/09/05 11:53:06;;;;;;;;;;;;;;;22.53;46.91;98581.41;5051590;28;20370;-69
2023/09/05 11:55:34;;;;;;;;;;;;;;;22.55;47.04;98581.84;5048522;28;20404;-69
2023/09/05 11:58:02;;;;;;;;;;;;;;;22.57;47.45;98579.50;5046604;28;19925;-68
2023/09/05 12:00:33;;;;;;;;;;;;;;;22.60;47.14;98573.22;5039425;28;19925;-69
2023/09/05 12:03:01;;;;;;;;;;;;;;;22.57;46.92;98577.53;5050466;28;20046;-69
2023/09/05 12:05:31;;;;;;;;;;;;;;;22.63;47.57;98572.47;5051262;28;20408;-69
2023/09/05 12:07:59;;;;;;;;;;;;;;;22.67;46.79;98573.31;5049795;28;19990;-69
2023/09/05 12:10:30;;;;;;;;;;;;;;;22.74;46.21;98570.63;5050713;28;20047;-69
2023/09/05 12:12:59;;;;;;;;;;;;;;;22.75;45.37;98561.97;5042069;28;19925;-68
2023/09/05 12:15:30;;;;;;;;;;;;;;;22.79;45.68;98556.44;5045496;28;19971;-69
2023/09/05 12:18:04;;;;;;;;;;;;;;;22.77;44.45;98553.28;5050574;28;20284;-69
2023/09/05 12:20:31;;;;;;;;;;;;;;;22.76;44.32;98548.91;5057347;28;20489;-69
2023/09/05 12:22:59;;;;;;;;;;;;;;;22.75;44.64;98542.56;5045660;28;19978;-69
2023/09/05 12:25:28;;;;;;;;;;;;;;;22.78;44.10;98543.78;5043946;28;19955;-69
2023/09/05 12:28:15;;;;;;;;;;;;;;;22.81;44.85;98537.50;5054910;28;19932;-69
2023/09/05 12:30:43;;;;;;;;;;;;;;;22.78;44.40;98537.44;5057084;28;20453;-69
2023/09/05 12:33:12;;;;;;;;;;;;;;;22.81;44.49;98531.97;5053508;28;19986;-69
2023/09/05 12:35:40;;;;;;;;;;;;;;;22.85;43.32;98534.75;5044713;28;20385;-69
2023/09/05 12:38:09;;;;;;;;;;;;;;;22.92;41.15;98526.56;5050138;28;19964;-69
2023/09/05 12:40:38;;;;;;;;;;;;;;;22.95;43.78;98521.06;5048971;28;20270;-68
2023/09/05 12:43:05;;;;;;;;;;;;;;;22.95;41.65;98515.50;5050382;28;20301;-68
2023/09/05 12:45:33;;;;;;;;;;;;;;;22.94;43.67;98518.66;5043952;28;19925;-68
2023/09/05 12:48:01;;;;;;;;;;;;;;;22.95;43.31;98523.81;5048886;28;19925;-69
2023/09/05 12:50:32;;;;;;;;;;;;;;;22.93;44.25;98517.06;5049500;28;19924;-69
2023/09/05 12:53:01;;;;;;;;;;;;;;;22.99;42.91;98518.31;5050208;28;20074;-69
2023/09/05 12:55:31;;;;;;;;;;;;;;;23.03;42.45;98515.59;5053088;28;19924;-69